Meath Environmental Platform

Observations for Trim Market St

Time AQI Temp °C Hum % Pres Pa CO μg/m³ H₂S μg/m³ NO μg/m³ NO₂ μg/m³ O₃ μg/m³ SO₂ μg/m³ PM1 μg/m³ PM2.5 μg/m³ PM10 μg/m³
Wednesday 26 August 2026
21:01 3 19.7 68 54,219 0.14 0 1.45 28.25 67.31 0 13.54 15.34 22.16
20:59 3 19.7 68 54,607 0.04 0 1.5 27.8 63.02 0 10.69 12.43 17.74
20:58 3 19.7 68 54,730 0 0 1.59 12.84 77.31 0 8.55 11.94 18.38
20:56 3 19.8 68 55,016 0.01 0 1.64 12.89 77.9 0 9.26 11.47 16.49
20:54 3 19.8 68 55,244 0 0 1.37 18.83 71.18 0 10.69 14.91 21.62
20:53 3 19.9 68 55,359 0 0 1.26 18.16 72.91 0 7.84 8.55 13.3
20:50 3 20 67 55,541 0 0 1.66 12.7 77.69 0 7.84 12.01 19.11
20:48 3 20.1 67 55,681 0 0 1.47 12.09 82.31 0 7.84 10.54 15.9
20:45 3 20.2 67 55,917 0 0 1.24 12.75 79.39 0 7.13 11.05 15.93
20:39 3 20.3 66 56,180 0 0 1.83 14.1 80.43 0 9.98 12.08 18.57
20:34 3 20.5 66 56,324 0 0 2.33 16.26 78.58 0 5.7 9.64 14.04
20:33 3 20.5 66 56,376 0 0 2.35 13.98 79.84 0 7.84 12.6 19.26
20:32 3 20.6 66 56,430 0 0 2.45 16.16 75.16 0 8.55 11.62 16.66
20:31 3 20.6 66 56,489 0.13 0 2.37 20.86 74.03 0 7.84 9.17 13.41
20:30 3 20.6 65 56,548 0 0 2.12 31.6 64.07 0 7.13 9.67 14.72
20:29 3 20.7 65 56,603 0 0 1.58 31.71 63.45 0 6.41 8.2 11.46
20:28 3 20.7 65 56,658 0 0 1.46 18.04 76.08 0 8.55 11.66 18.67
20:27 3 20.8 65 56,713 0 0 1.33 19.8 75 0 7.13 9.7 13.44
20:26 3 20.8 65 56,782 0 0 1.28 17.7 77.51 0 7.13 9.71 14.76
20:25 3 20.8 65 56,847 0 0 1.52 17.48 77.26 0 6.41 8.24 12.14